sensor_id;sensor_type;location;lat;lon;timestamp;pressure;altitude;pressure_sealevel;temperature;humidity
36748;BME280;22716;51.556;5.080;2023-07-20T00:01:16;100722.06;;;18.27;100.00
36748;BME280;22716;51.556;5.080;2023-07-20T00:03:44;100727.50;;;18.24;100.00
36748;BME280;22716;51.556;5.080;2023-07-20T00:06:20;100732.94;;;18.21;100.00
36748;BME280;22716;51.556;5.080;2023-07-20T00:08:49;100729.50;;;18.19;100.00
36748;BME280;22716;51.556;5.080;2023-07-20T00:11:18;100725.34;;;18.14;100.00
36748;BME280;22716;51.556;5.080;2023-07-20T00:13:46;100729.13;;;18.08;100.00
36748;BME280;22716;51.556;5.080;2023-07-20T00:16:17;100720.44;;;18.05;100.00
36748;BME280;22716;51.556;5.080;2023-07-20T00:18:46;100723.13;;;18.03;100.00
36748;BME280;22716;51.556;5.080;2023-07-20T00:21:15;100718.09;;;17.97;100.00
36748;BME280;22716;51.556;5.080;2023-07-20T00:23:43;100720.00;;;17.93;100.00
36748;BME280;22716;51.556;5.080;2023-07-20T00:26:12;100718.47;;;17.88;100.00
36748;BME280;22716;51.556;5.080;2023-07-20T00:28:41;100725.47;;;17.90;100.00
36748;BME280;22716;51.556;5.080;2023-07-20T00:31:09;100726.38;;;17.89;100.00
36748;BME280;22716;51.556;5.080;2023-07-20T00:33:41;100720.28;;;17.87;100.00
36748;BME280;22716;51.556;5.080;2023-07-20T00:36:09;100723.00;;;17.86;100.00
36748;BME280;22716;51.556;5.080;2023-07-20T00:38:38;100719.34;;;17.88;100.00
36748;BME280;22716;51.556;5.080;2023-07-20T00:41:07;100722.00;;;17.88;100.00
36748;BME280;22716;51.556;5.080;2023-07-20T00:43:36;100735.47;;;17.84;100.00
36748;BME280;22716;51.556;5.080;2023-07-20T00:46:04;100721.50;;;17.79;100.00
36748;BME280;22716;51.556;5.080;2023-07-20T00:48:33;100717.91;;;17.81;100.00
36748;BME280;22716;51.556;5.080;2023-07-20T00:51:05;100727.09;;;17.73;100.00
36748;BME280;22716;51.556;5.080;2023-07-20T00:53:34;100736.00;;;17.70;100.00
36748;BME280;22716;51.556;5.080;2023-07-20T00:56:03;100735.22;;;17.68;100.00
36748;BME280;22716;51.556;5.080;2023-07-20T00:58:34;100728.38;;;17.63;100.00
36748;BME280;22716;51.556;5.080;2023-07-20T01:01:03;100739.31;;;17.55;100.00
36748;BME280;22716;51.556;5.080;2023-07-20T01:03:32;100734.09;;;17.52;100.00
36748;BME280;22716;51.556;5.080;2023-07-20T01:06:09;100735.88;;;17.52;100.00
36748;BME280;22716;51.556;5.080;2023-07-20T01:08:42;100738.56;;;17.50;100.00
36748;BME280;22716;51.556;5.080;2023-07-20T01:11:16;100742.09;;;17.51;100.00
36748;BME280;22716;51.556;5.080;2023-07-20T01:13:45;100745.94;;;17.44;100.00
36748;BME280;22716;51.556;5.080;2023-07-20T01:16:14;100746.53;;;17.50;100.00
36748;BME280;22716;51.556;5.080;2023-07-20T01:18:43;100740.34;;;17.50;100.00
36748;BME280;22716;51.556;5.080;2023-07-20T01:21:28;100739.66;;;17.46;100.00
36748;BME280;22716;51.556;5.080;2023-07-20T01:24:17;100754.44;;;17.52;100.00
36748;BME280;22716;51.556;5.080;2023-07-20T01:27:01;100745.06;;;17.65;100.00
36748;BME280;22716;51.556;5.080;2023-07-20T01:29:58;100737.06;;;17.66;100.00
36748;BME280;22716;51.556;5.080;2023-07-20T01:32:34;100744.81;;;17.71;100.00
36748;BME280;22716;51.556;5.080;2023-07-20T01:35:05;100758.91;;;17.73;100.00
36748;BME280;22716;51.556;5.080;2023-07-20T01:37:37;100753.59;;;17.73;100.00
36748;BME280;22716;51.556;5.080;2023-07-20T01:40:08;100752.56;;;17.54;100.00
36748;BME280;22716;51.556;5.080;2023-07-20T01:42:37;100752.19;;;17.41;100.00
36748;BME280;22716;51.556;5.080;2023-07-20T01:45:07;100751.22;;;17.44;100.00
36748;BME280;22716;51.556;5.080;2023-07-20T01:47:39;100750.84;;;17.31;100.00
36748;BME280;22716;51.556;5.080;2023-07-20T01:50:09;100751.44;;;17.16;100.00
36748;BME280;22716;51.556;5.080;2023-07-20T01:52:37;100760.19;;;17.18;100.00
36748;BME280;22716;51.556;5.080;2023-07-20T01:55:07;100754.00;;;17.17;100.00
36748;BME280;22716;51.556;5.080;2023-07-20T01:57:36;100761.91;;;17.19;100.00
36748;BME280;22716;51.556;5.080;2023-07-20T02:00:02;100759.38;;;17.16;100.00
36748;BME280;22716;51.556;5.080;2023-07-20T02:02:32;100762.03;;;17.16;100.00
36748;BME280;22716;51.556;5.080;2023-07-20T02:05:04;100761.03;;;17.18;100.00
36748;BME280;22716;51.556;5.080;2023-07-20T02:07:33;100768.19;;;17.16;100.00
36748;BME280;22716;51.556;5.080;2023-07-20T02:10:01;100760.28;;;17.15;100.00
36748;BME280;22716;51.556;5.080;2023-07-20T02:12:30;100765.53;;;17.16;100.00
36748;BME280;22716;51.556;5.080;2023-07-20T02:14:58;100762.06;;;17.14;100.00
36748;BME280;22716;51.556;5.080;2023-07-20T02:17:27;100770.16;;;17.11;100.00
36748;BME280;22716;51.556;5.080;2023-07-20T02:19:57;100764.97;;;17.08;100.00
36748;BME280;22716;51.556;5.080;2023-07-20T02:22:28;100769.28;;;17.11;100.00
36748;BME280;22716;51.556;5.080;2023-07-20T02:24:57;100768.78;;;17.01;100.00
36748;BME280;22716;51.556;5.080;2023-07-20T02:27:25;100771.72;;;16.94;100.00
36748;BME280;22716;51.556;5.080;2023-07-20T02:29:54;100771.84;;;16.91;100.00
36748;BME280;22716;51.556;5.080;2023-07-20T02:32:22;100785.56;;;17.00;100.00
36748;BME280;22716;51.556;5.080;2023-07-20T02:34:51;100768.44;;;16.87;100.00
36748;BME280;22716;51.556;5.080;2023-07-20T02:37:20;100776.38;;;16.87;100.00
36748;BME280;22716;51.556;5.080;2023-07-20T02:39:51;100784.13;;;16.92;100.00
36748;BME280;22716;51.556;5.080;2023-07-20T02:42:20;100778.19;;;16.85;100.00
36748;BME280;22716;51.556;5.080;2023-07-20T02:44:51;100776.84;;;16.73;100.00
36748;BME280;22716;51.556;5.080;2023-07-20T02:47:20;100780.13;;;16.82;100.00
36748;BME280;22716;51.556;5.080;2023-07-20T02:49:48;100782.41;;;16.91;100.00
36748;BME280;22716;51.556;5.080;2023-07-20T02:52:17;100780.91;;;16.84;100.00
36748;BME280;22716;51.556;5.080;2023-07-20T02:54:46;100784.69;;;16.76;100.00
36748;BME280;22716;51.556;5.080;2023-07-20T02:57:17;100792.00;;;16.70;100.00
36748;BME280;22716;51.556;5.080;2023-07-20T02:59:45;100791.19;;;16.68;100.00
36748;BME280;22716;51.556;5.080;2023-07-20T03:02:14;100797.34;;;16.68;100.00
36748;BME280;22716;51.556;5.080;2023-07-20T03:04:43;100797.31;;;16.70;100.00
36748;BME280;22716;51.556;5.080;2023-07-20T03:07:11;100805.94;;;16.75;100.00
36748;BME280;22716;51.556;5.080;2023-07-20T03:09:40;100799.88;;;16.71;100.00
36748;BME280;22716;51.556;5.080;2023-07-20T03:12:10;100795.50;;;16.70;100.00
36748;BME280;22716;51.556;5.080;2023-07-20T03:14:41;100805.97;;;16.73;100.00
36748;BME280;22716;51.556;5.080;2023-07-20T03:17:09;100805.25;;;16.70;100.00
36748;BME280;22716;51.556;5.080;2023-07-20T03:19:38;100807.91;;;16.68;100.00
36748;BME280;22716;51.556;5.080;2023-07-20T03:22:07;100812.00;;;16.77;100.00
36748;BME280;22716;51.556;5.080;2023-07-20T03:24:35;100811.88;;;16.82;100.00
36748;BME280;22716;51.556;5.080;2023-07-20T03:27:05;100820.78;;;16.79;100.00
36748;BME280;22716;51.556;5.080;2023-07-20T03:29:33;100816.41;;;16.78;100.00
36748;BME280;22716;51.556;5.080;2023-07-20T03:32:05;100817.53;;;16.71;100.00
36748;BME280;22716;51.556;5.080;2023-07-20T03:34:34;100813.22;;;16.68;100.00
36748;BME280;22716;51.556;5.080;2023-07-20T03:37:03;100826.63;;;16.64;100.00
36748;BME280;22716;51.556;5.080;2023-07-20T03:39:32;100818.25;;;16.50;100.00
36748;BME280;22716;51.556;5.080;2023-07-20T03:42:01;100811.25;;;16.49;100.00
36748;BME280;22716;51.556;5.080;2023-07-20T03:44:30;100812.03;;;16.51;100.00
36748;BME280;22716;51.556;5.080;2023-07-20T03:46:59;100815.50;;;16.54;100.00
36748;BME280;22716;51.556;5.080;2023-07-20T03:49:31;100815.50;;;16.53;100.00
36748;BME280;22716;51.556;5.080;2023-07-20T03:52:00;100816.38;;;16.53;100.00
36748;BME280;22716;51.556;5.080;2023-07-20T03:54:29;100821.66;;;16.55;100.00
36748;BME280;22716;51.556;5.080;2023-07-20T03:56:58;100826.06;;;16.54;100.00
36748;BME280;22716;51.556;5.080;2023-07-20T03:59:26;100818.91;;;16.58;100.00
36748;BME280;22716;51.556;5.080;2023-07-20T04:01:55;100824.94;;;16.61;100.00
36748;BME280;22716;51.556;5.080;2023-07-20T04:04:23;100821.38;;;16.62;100.00
36748;BME280;22716;51.556;5.080;2023-07-20T04:06:55;100813.59;;;16.58;100.00
36748;BME280;22716;51.556;5.080;2023-07-20T04:09:23;100824.09;;;16.61;100.00
36748;BME280;22716;51.556;5.080;2023-07-20T04:11:52;100826.94;;;16.55;100.00
36748;BME280;22716;51.556;5.080;2023-07-20T04:14:20;100833.41;;;16.45;100.00
36748;BME280;22716;51.556;5.080;2023-07-20T04:16:50;100835.16;;;16.46;100.00
36748;BME280;22716;51.556;5.080;2023-07-20T04:19:19;100828.53;;;16.59;100.00
36748;BME280;22716;51.556;5.080;2023-07-20T04:21:48;100830.94;;;16.66;100.00
36748;BME280;22716;51.556;5.080;2023-07-20T04:24:19;100820.50;;;16.62;100.00
36748;BME280;22716;51.556;5.080;2023-07-20T04:26:48;100827.25;;;16.70;100.00
36748;BME280;22716;51.556;5.080;2023-07-20T04:29:16;100827.09;;;16.75;100.00
36748;BME280;22716;51.556;5.080;2023-07-20T04:31:45;100826.22;;;16.74;100.00
36748;BME280;22716;51.556;5.080;2023-07-20T04:34:14;100818.13;;;16.79;100.00
36748;BME280;22716;51.556;5.080;2023-07-20T04:36:44;100829.41;;;16.84;100.00
36748;BME280;22716;51.556;5.080;2023-07-20T04:39:12;100827.56;;;16.86;100.00
36748;BME280;22716;51.556;5.080;2023-07-20T04:41:43;100816.97;;;16.86;100.00
36748;BME280;22716;51.556;5.080;2023-07-20T04:44:13;100826.25;;;16.98;100.00
36748;BME280;22716;51.556;5.080;2023-07-20T04:46:42;100826.03;;;17.04;100.00
36748;BME280;22716;51.556;5.080;2023-07-20T04:49:10;100836.84;;;16.98;100.00
36748;BME280;22716;51.556;5.080;2023-07-20T04:51:39;100841.91;;;17.04;100.00
36748;BME280;22716;51.556;5.080;2023-07-20T04:54:08;100836.47;;;17.08;100.00
36748;BME280;22716;51.556;5.080;2023-07-20T04:56:36;100828.41;;;17.11;100.00
36748;BME280;22716;51.556;5.080;2023-07-20T04:59:08;100830.00;;;17.15;100.00
36748;BME280;22716;51.556;5.080;2023-07-20T05:01:36;100823.09;;;17.11;100.00
36748;BME280;22716;51.556;5.080;2023-07-20T05:04:05;100824.53;;;17.20;100.00
36748;BME280;22716;51.556;5.080;2023-07-20T05:06:34;100827.13;;;17.21;100.00
36748;BME280;22716;51.556;5.080;2023-07-20T05:09:04;100829.09;;;17.38;100.00
36748;BME280;22716;51.556;5.080;2023-07-20T05:11:33;100833.03;;;17.51;100.00
36748;BME280;22716;51.556;5.080;2023-07-20T05:14:02;100839.19;;;17.52;100.00
36748;BME280;22716;51.556;5.080;2023-07-20T05:16:33;100840.69;;;17.35;100.00
36748;BME280;22716;51.556;5.080;2023-07-20T05:19:01;100840.34;;;17.21;100.00
36748;BME280;22716;51.556;5.080;2023-07-20T05:21:30;100844.66;;;17.24;100.00
36748;BME280;22716;51.556;5.080;2023-07-20T05:23:59;100848.25;;;17.23;100.00
36748;BME280;22716;51.556;5.080;2023-07-20T05:26:27;100836.28;;;17.13;100.00
36748;BME280;22716;51.556;5.080;2023-07-20T05:28:56;100845.09;;;17.13;100.00
36748;BME280;22716;51.556;5.080;2023-07-20T05:31:25;100858.09;;;17.19;100.00
36748;BME280;22716;51.556;5.080;2023-07-20T05:33:58;100852.69;;;17.22;100.00
36748;BME280;22716;51.556;5.080;2023-07-20T05:36:27;100853.28;;;17.29;100.00
36748;BME280;22716;51.556;5.080;2023-07-20T05:38:56;100852.47;;;17.28;100.00
36748;BME280;22716;51.556;5.080;2023-07-20T05:41:25;100852.56;;;17.25;100.00
36748;BME280;22716;51.556;5.080;2023-07-20T05:43:53;100856.09;;;17.26;100.00
36748;BME280;22716;51.556;5.080;2023-07-20T05:46:22;100848.16;;;17.26;100.00
36748;BME280;22716;51.556;5.080;2023-07-20T05:48:51;100855.38;;;17.44;100.00
36748;BME280;22716;51.556;5.080;2023-07-20T05:51:22;100852.84;;;17.64;100.00
36748;BME280;22716;51.556;5.080;2023-07-20T05:53:50;100853.91;;;17.82;100.00
36748;BME280;22716;51.556;5.080;2023-07-20T05:56:19;100851.38;;;17.79;100.00
36748;BME280;22716;51.556;5.080;2023-07-20T05:58:48;100850.03;;;17.69;100.00
36748;BME280;22716;51.556;5.080;2023-07-20T06:01:16;100857.72;;;17.75;100.00
36748;BME280;22716;51.556;5.080;2023-07-20T06:03:45;100855.00;;;17.76;100.00
36748;BME280;22716;51.556;5.080;2023-07-20T06:06:14;100860.13;;;17.81;100.00
36748;BME280;22716;51.556;5.080;2023-07-20T06:08:45;100842.47;;;17.81;100.00
36748;BME280;22716;51.556;5.080;2023-07-20T06:11:14;100858.53;;;17.99;100.00
36748;BME280;22716;51.556;5.080;2023-07-20T06:13:42;100857.84;;;18.15;100.00
36748;BME280;22716;51.556;5.080;2023-07-20T06:16:11;100870.34;;;18.33;100.00
36748;BME280;22716;51.556;5.080;2023-07-20T06:18:40;100861.22;;;18.40;100.00
36748;BME280;22716;51.556;5.080;2023-07-20T06:21:08;100871.38;;;18.51;100.00
36748;BME280;22716;51.556;5.080;2023-07-20T06:23:38;100866.69;;;18.58;100.00
36748;BME280;22716;51.556;5.080;2023-07-20T06:26:09;100878.34;;;18.54;100.00
36748;BME280;22716;51.556;5.080;2023-07-20T06:28:37;100880.09;;;18.55;100.00
36748;BME280;22716;51.556;5.080;2023-07-20T06:31:06;100876.63;;;18.53;100.00
36748;BME280;22716;51.556;5.080;2023-07-20T06:33:34;100881.91;;;18.53;100.00
36748;BME280;22716;51.556;5.080;2023-07-20T06:36:04;100870.38;;;18.94;100.00
36748;BME280;22716;51.556;5.080;2023-07-20T06:38:32;100877.09;;;19.41;100.00
36748;BME280;22716;51.556;5.080;2023-07-20T06:41:01;100875.22;;;19.43;100.00
36748;BME280;22716;51.556;5.080;2023-07-20T06:43:33;100872.81;;;19.58;100.00
36748;BME280;22716;51.556;5.080;2023-07-20T06:46:01;100871.22;;;19.53;100.00
36748;BME280;22716;51.556;5.080;2023-07-20T06:48:30;100865.63;;;19.60;100.00
36748;BME280;22716;51.556;5.080;2023-07-20T06:50:59;100877.69;;;19.67;100.00
36748;BME280;22716;51.556;5.080;2023-07-20T06:53:28;100880.69;;;19.59;100.00
36748;BME280;22716;51.556;5.080;2023-07-20T06:55:57;100872.28;;;19.49;100.00
36748;BME280;22716;51.556;5.080;2023-07-20T06:58:25;100884.56;;;19.71;99.15
36748;BME280;22716;51.556;5.080;2023-07-20T07:00:56;100886.94;;;19.77;98.96
36748;BME280;22716;51.556;5.080;2023-07-20T07:03:25;100890.31;;;19.80;98.33
36748;BME280;22716;51.556;5.080;2023-07-20T07:05:55;100890.84;;;19.70;98.51
36748;BME280;22716;51.556;5.080;2023-07-20T07:08:24;100887.94;;;19.55;98.86
36748;BME280;22716;51.556;5.080;2023-07-20T07:10:52;100881.25;;;19.47;98.21
36748;BME280;22716;51.556;5.080;2023-07-20T07:13:21;100873.28;;;19.47;98.76
36748;BME280;22716;51.556;5.080;2023-07-20T07:15:50;100889.59;;;19.77;98.08
36748;BME280;22716;51.556;5.080;2023-07-20T07:18:23;100885.78;;;19.82;96.88
36748;BME280;22716;51.556;5.080;2023-07-20T07:20:52;100892.31;;;19.94;97.04
36748;BME280;22716;51.556;5.080;2023-07-20T07:23:21;100882.09;;;20.03;96.65
36748;BME280;22716;51.556;5.080;2023-07-20T07:25:50;100891.91;;;20.20;95.02
36748;BME280;22716;51.556;5.080;2023-07-20T07:28:18;100889.69;;;20.47;94.26
36748;BME280;22716;51.556;5.080;2023-07-20T07:30:47;100898.50;;;20.49;91.59
36748;BME280;22716;51.556;5.080;2023-07-20T07:33:16;100890.41;;;20.33;91.54
36748;BME280;22716;51.556;5.080;2023-07-20T07:35:47;100898.72;;;20.44;91.77
36748;BME280;22716;51.556;5.080;2023-07-20T07:38:16;100895.75;;;20.67;90.50
36748;BME280;22716;51.556;5.080;2023-07-20T07:40:45;100900.66;;;20.92;89.21
36748;BME280;22716;51.556;5.080;2023-07-20T07:43:14;100898.38;;;20.85;88.18
36748;BME280;22716;51.556;5.080;2023-07-20T07:45:42;100899.88;;;20.39;89.18
36748;BME280;22716;51.556;5.080;2023-07-20T07:48:11;100904.19;;;20.41;88.71
36748;BME280;22716;51.556;5.080;2023-07-20T07:50:39;100904.59;;;20.51;88.13
36748;BME280;22716;51.556;5.080;2023-07-20T07:53:11;100911.16;;;20.61;88.01
36748;BME280;22716;51.556;5.080;2023-07-20T07:55:39;100908.00;;;20.36;89.61
36748;BME280;22716;51.556;5.080;2023-07-20T07:58:08;100915.03;;;20.01;90.13
36748;BME280;22716;51.556;5.080;2023-07-20T08:00:37;100919.03;;;19.91;90.29
36748;BME280;22716;51.556;5.080;2023-07-20T08:03:06;100914.16;;;20.00;89.65
36748;BME280;22716;51.556;5.080;2023-07-20T08:05:35;100912.66;;;19.95;90.31
36748;BME280;22716;51.556;5.080;2023-07-20T08:08:04;100913.59;;;19.94;89.79
36748;BME280;22716;51.556;5.080;2023-07-20T08:10:36;100919.34;;;19.85;89.61
36748;BME280;22716;51.556;5.080;2023-07-20T08:13:05;100911.34;;;19.85;88.73
36748;BME280;22716;51.556;5.080;2023-07-20T08:15:34;100908.34;;;19.92;88.68
36748;BME280;22716;51.556;5.080;2023-07-20T08:18:03;100912.84;;;20.09;87.96
36748;BME280;22716;51.556;5.080;2023-07-20T08:20:31;100913.72;;;20.09;88.22
36748;BME280;22716;51.556;5.080;2023-07-20T08:23:01;100920.44;;;20.35;86.64
36748;BME280;22716;51.556;5.080;2023-07-20T08:25:30;100915.53;;;20.45;85.66
36748;BME280;22716;51.556;5.080;2023-07-20T08:28:01;100905.16;;;20.57;85.32
36748;BME280;22716;51.556;5.080;2023-07-20T08:30:39;100917.34;;;20.79;83.58
36748;BME280;22716;51.556;5.080;2023-07-20T08:33:09;100912.66;;;21.01;83.88
36748;BME280;22716;51.556;5.080;2023-07-20T08:35:38;100910.91;;;21.17;82.65
36748;BME280;22716;51.556;5.080;2023-07-20T08:38:07;100906.28;;;21.03;81.94
36748;BME280;22716;51.556;5.080;2023-07-20T08:40:40;100911.47;;;21.23;81.49
36748;BME280;22716;51.556;5.080;2023-07-20T08:43:12;100908.72;;;21.25;80.92
36748;BME280;22716;51.556;5.080;2023-07-20T08:45:43;100917.72;;;21.40;80.65
36748;BME280;22716;51.556;5.080;2023-07-20T08:48:13;100907.22;;;21.19;79.42
36748;BME280;22716;51.556;5.080;2023-07-20T08:50:44;100900.34;;;21.15;80.31
36748;BME280;22716;51.556;5.080;2023-07-20T08:53:14;100899.66;;;20.95;80.14
36748;BME280;22716;51.556;5.080;2023-07-20T08:55:44;100900.84;;;20.72;80.98
36748;BME280;22716;51.556;5.080;2023-07-20T08:58:17;100908.28;;;20.65;80.85
36748;BME280;22716;51.556;5.080;2023-07-20T09:00:46;100908.03;;;20.53;80.67
36748;BME280;22716;51.556;5.080;2023-07-20T09:03:16;100904.19;;;20.41;82.08
36748;BME280;22716;51.556;5.080;2023-07-20T09:05:45;100908.34;;;20.47;81.24
36748;BME280;22716;51.556;5.080;2023-07-20T09:08:13;100908.34;;;20.47;81.39
36748;BME280;22716;51.556;5.080;2023-07-20T09:10:42;100903.81;;;20.49;81.70
36748;BME280;22716;51.556;5.080;2023-07-20T09:13:16;100875.22;;;20.35;80.74
36748;BME280;22716;51.556;5.080;2023-07-20T09:15:53;100906.38;;;20.67;81.36
36748;BME280;22716;51.556;5.080;2023-07-20T09:18:26;100904.69;;;20.66;81.63
36748;BME280;22716;51.556;5.080;2023-07-20T09:20:58;100898.38;;;20.85;79.85
36748;BME280;22716;51.556;5.080;2023-07-20T09:23:32;100905.84;;;20.95;79.27
36748;BME280;22716;51.556;5.080;2023-07-20T09:26:01;100898.00;;;20.92;79.71
36748;BME280;22716;51.556;5.080;2023-07-20T09:28:47;100899.81;;;20.92;79.34
36748;BME280;22716;51.556;5.080;2023-07-20T09:31:17;100895.63;;;21.20;78.92
36748;BME280;22716;51.556;5.080;2023-07-20T09:33:47;100896.28;;;21.08;79.38
36748;BME280;22716;51.556;5.080;2023-07-20T09:36:16;100895.81;;;20.83;80.54
36748;BME280;22716;51.556;5.080;2023-07-20T09:38:45;100895.09;;;20.97;81.47
36748;BME280;22716;51.556;5.080;2023-07-20T09:41:14;100891.50;;;20.98;81.23
36748;BME280;22716;51.556;5.080;2023-07-20T09:43:46;100891.84;;;20.75;80.98
36748;BME280;22716;51.556;5.080;2023-07-20T09:46:15;100885.56;;;20.93;81.13
36748;BME280;22716;51.556;5.080;2023-07-20T09:48:51;100902.28;;;21.29;81.28
36748;BME280;22716;51.556;5.080;2023-07-20T09:51:22;100892.59;;;21.44;80.59
36748;BME280;22716;51.556;5.080;2023-07-20T09:53:52;100898.22;;;21.70;79.77
36748;BME280;22716;51.556;5.080;2023-07-20T09:56:22;100881.53;;;21.83;78.45
36748;BME280;22716;51.556;5.080;2023-07-20T09:58:56;100883.16;;;21.85;78.99
36748;BME280;22716;51.556;5.080;2023-07-20T10:01:26;100884.06;;;22.01;77.74
36748;BME280;22716;51.556;5.080;2023-07-20T10:03:58;100888.38;;;22.04;77.68
36748;BME280;22716;51.556;5.080;2023-07-20T10:06:28;100883.19;;;22.01;76.36
36748;BME280;22716;51.556;5.080;2023-07-20T10:09:02;100881.47;;;22.00;76.78
36748;BME280;22716;51.556;5.080;2023-07-20T10:11:36;100881.91;;;21.92;75.93
36748;BME280;22716;51.556;5.080;2023-07-20T10:14:08;100883.38;;;21.98;75.72
36748;BME280;22716;51.556;5.080;2023-07-20T10:16:42;100875.72;;;21.92;75.37
36748;BME280;22716;51.556;5.080;2023-07-20T10:19:19;100882.00;;;21.91;75.15
36748;BME280;22716;51.556;5.080;2023-07-20T10:21:57;100880.94;;;21.93;74.22
36748;BME280;22716;51.556;5.080;2023-07-20T10:24:28;100883.53;;;22.10;74.34
36748;BME280;22716;51.556;5.080;2023-07-20T10:26:57;100883.69;;;22.23;73.71
36748;BME280;22716;51.556;5.080;2023-07-20T10:29:29;100880.59;;;22.15;74.01
36748;BME280;22716;51.556;5.080;2023-07-20T10:31:58;100878.63;;;22.18;73.20
36748;BME280;22716;51.556;5.080;2023-07-20T10:34:28;100879.72;;;22.30;72.08
36748;BME280;22716;51.556;5.080;2023-07-20T10:36:57;100878.03;;;22.43;73.13
36748;BME280;22716;51.556;5.080;2023-07-20T10:39:26;100875.88;;;22.50;71.46
36748;BME280;22716;51.556;5.080;2023-07-20T10:42:00;100872.84;;;22.56;71.63
36748;BME280;22716;51.556;5.080;2023-07-20T10:44:32;100874.88;;;22.37;72.02
36748;BME280;22716;51.556;5.080;2023-07-20T10:47:02;100868.84;;;22.33;72.13
36748;BME280;22716;51.556;5.080;2023-07-20T10:49:33;100859.59;;;22.09;73.04
36748;BME280;22716;51.556;5.080;2023-07-20T10:52:05;100860.53;;;22.08;73.46
36748;BME280;22716;51.556;5.080;2023-07-20T10:54:35;100854.78;;;22.00;73.57
36748;BME280;22716;51.556;5.080;2023-07-20T10:57:29;100858.94;;;21.90;72.93
36748;BME280;22716;51.556;5.080;2023-07-20T11:00:14;100855.94;;;21.96;73.00
36748;BME280;22716;51.556;5.080;2023-07-20T11:02:44;100864.00;;;21.94;72.72
36748;BME280;22716;51.556;5.080;2023-07-20T11:05:33;100859.09;;;21.87;72.54
36748;BME280;22716;51.556;5.080;2023-07-20T11:08:10;100847.03;;;21.79;73.48
36748;BME280;22716;51.556;5.080;2023-07-20T11:10:40;100858.75;;;21.77;73.69
36748;BME280;22716;51.556;5.080;2023-07-20T11:13:19;100852.38;;;21.79;73.03
36748;BME280;22716;51.556;5.080;2023-07-20T11:16:04;100861.75;;;21.87;73.13
36748;BME280;22716;51.556;5.080;2023-07-20T11:18:33;100859.50;;;21.79;73.12
36748;BME280;22716;51.556;5.080;2023-07-20T11:21:10;100852.69;;;21.58;74.11
36748;BME280;22716;51.556;5.080;2023-07-20T11:23:39;100854.63;;;21.71;73.29
36748;BME280;22716;51.556;5.080;2023-07-20T11:26:08;100847.63;;;21.85;72.79
36748;BME280;22716;51.556;5.080;2023-07-20T11:28:38;100848.25;;;22.05;71.92
36748;BME280;22716;51.556;5.080;2023-07-20T11:31:09;100847.19;;;22.08;72.50
36748;BME280;22716;51.556;5.080;2023-07-20T11:33:37;100838.59;;;22.18;71.71
36748;BME280;22716;51.556;5.080;2023-07-20T11:36:08;100830.59;;;22.18;72.16
36748;BME280;22716;51.556;5.080;2023-07-20T11:38:38;100841.47;;;22.29;71.42
36748;BME280;22716;51.556;5.080;2023-07-20T11:41:07;100841.44;;;22.45;71.68
36748;BME280;22716;51.556;5.080;2023-07-20T11:43:37;100845.22;;;22.41;71.30
36748;BME280;22716;51.556;5.080;2023-07-20T11:46:09;100838.44;;;22.36;71.28
36748;BME280;22716;51.556;5.080;2023-07-20T11:48:37;100843.59;;;22.39;70.71
36748;BME280;22716;51.556;5.080;2023-07-20T11:51:06;100842.50;;;22.43;71.00
36748;BME280;22716;51.556;5.080;2023-07-20T11:53:34;100838.22;;;22.54;71.48
36748;BME280;22716;51.556;5.080;2023-07-20T11:56:04;100837.66;;;22.63;71.36
36748;BME280;22716;51.556;5.080;2023-07-20T11:58:33;100832.94;;;22.68;70.54
36748;BME280;22716;51.556;5.080;2023-07-20T12:01:01;100824.50;;;22.60;70.48
36748;BME280;22716;51.556;5.080;2023-07-20T12:03:33;100827.94;;;22.62;70.90
36748;BME280;22716;51.556;5.080;2023-07-20T12:06:06;100824.59;;;22.59;70.80
36748;BME280;22716;51.556;5.080;2023-07-20T12:08:38;100828.13;;;22.59;70.31
36748;BME280;22716;51.556;5.080;2023-07-20T12:11:08;100831.22;;;22.67;69.85
36748;BME280;22716;51.556;5.080;2023-07-20T12:13:38;100839.00;;;22.56;70.60
36748;BME280;22716;51.556;5.080;2023-07-20T12:16:10;100832.47;;;22.46;70.05
36748;BME280;22716;51.556;5.080;2023-07-20T12:18:43;100827.81;;;22.50;70.00
36748;BME280;22716;51.556;5.080;2023-07-20T12:21:11;100829.53;;;22.51;69.03
36748;BME280;22716;51.556;5.080;2023-07-20T12:23:41;100836.22;;;22.58;68.72
36748;BME280;22716;51.556;5.080;2023-07-20T12:26:10;100833.81;;;22.69;68.26
36748;BME280;22716;51.556;5.080;2023-07-20T12:28:39;100832.38;;;22.77;67.11
36748;BME280;22716;51.556;5.080;2023-07-20T12:31:09;100840.69;;;22.87;66.76
36748;BME280;22716;51.556;5.080;2023-07-20T12:33:41;100838.41;;;22.95;66.80
36748;BME280;22716;51.556;5.080;2023-07-20T12:36:10;100833.25;;;23.06;66.52
36748;BME280;22716;51.556;5.080;2023-07-20T12:38:39;100836.31;;;23.14;66.39
36748;BME280;22716;51.556;5.080;2023-07-20T12:41:10;100824.47;;;23.18;66.48
36748;BME280;22716;51.556;5.080;2023-07-20T12:43:40;100824.69;;;23.15;67.59
36748;BME280;22716;51.556;5.080;2023-07-20T12:46:09;100822.28;;;23.11;67.75
36748;BME280;22716;51.556;5.080;2023-07-20T12:48:39;100826.69;;;22.98;68.61
36748;BME280;22716;51.556;5.080;2023-07-20T12:51:11;100829.72;;;22.92;68.66
36748;BME280;22716;51.556;5.080;2023-07-20T12:53:40;100824.00;;;22.98;68.83
36748;BME280;22716;51.556;5.080;2023-07-20T12:56:08;100818.66;;;22.98;69.20
36748;BME280;22716;51.556;5.080;2023-07-20T12:58:37;100812.75;;;23.07;69.23
36748;BME280;22716;51.556;5.080;2023-07-20T13:01:06;100813.50;;;23.09;69.56